Time;durP1;ratioP1;P1;durP2;ratioP2;P2;SDS_P1;SDS_P2;PMS_P1;PMS_P2;Temp;Humidity;BMP_temperature;BMP_pressure;BME280_temperature;BME280_humidity;BME280_pressure;Samples;Min_cycle;Max_cycle;Signal;HPM_P1;HPM_P2
2021/12/23 00:00:49;;;;;;;;;;;-8.20;99.90;;;;;;5100308;28;19908;-86
2021/12/23 00:03:14;;;;;;;;;;;-8.10;99.90;;;;;;5100616;28;19930;-85
2021/12/23 00:05:40;;;;;;;;;;;-8.10;99.90;;;;;;5081194;28;19915;-84
2021/12/23 00:08:05;;;;;;;;;;;-7.90;99.90;;;;;;5082507;28;19928;-85
2021/12/23 00:10:31;;;;;;;;;;;-8.10;99.90;;;;;;5080753;28;19919;-86
2021/12/23 00:12:56;;;;;;;;;;;-8.10;99.90;;;;;;5099887;28;19908;-86
2021/12/23 00:16:17;;;;;;;;;;;-8.10;99.90;;;;;;5081155;28;19957;-85
2021/12/23 00:18:30;;;;;;;;;;;-8.10;99.90;;;;;;5091655;28;20329;-86
2021/12/23 00:23:42;;;;;;;;;;;-8.30;99.90;;;;;;5099423;28;19915;-85
2021/12/23 00:26:08;;;;;;;;;;;-8.30;99.90;;;;;;5099390;28;19969;-85
2021/12/23 00:28:33;;;;;;;;;;;-8.30;99.90;;;;;;5105164;28;19915;-86
2021/12/23 00:31:00;;;;;;;;;;;-8.30;99.90;;;;;;5096796;28;19915;-86
2021/12/23 00:33:26;;;;;;;;;;;-8.20;99.90;;;;;;5060249;28;19920;-85
2021/12/23 00:35:53;;;;;;;;;;;-8.30;99.90;;;;;;5077530;28;20286;-85
2021/12/23 00:38:25;;;;;;;;;;;-8.20;99.90;;;;;;5077448;28;19908;-84
2021/12/23 00:40:52;;;;;;;;;;;-8.30;99.90;;;;;;5083662;28;19920;-85
2021/12/23 00:43:17;;;;;;;;;;;-8.30;99.90;;;;;;5097613;28;20422;-85
2021/12/23 00:45:43;;;;;;;;;;;-8.20;99.90;;;;;;5058715;28;19913;-85
2021/12/23 00:48:08;;;;;;;;;;;-8.20;99.90;;;;;;5096833;28;20369;-85
2021/12/23 00:50:34;;;;;;;;;;;-8.20;99.90;;;;;;5078481;28;19969;-85
2021/12/23 00:53:04;;;;;;;;;;;-8.40;99.90;;;;;;5096410;28;19915;-86
2021/12/23 00:55:30;;;;;;;;;;;-8.40;99.90;;;;;;5078716;28;19915;-85
2021/12/23 00:57:56;;;;;;;;;;;-8.30;99.90;;;;;;5079691;28;19951;-86
2021/12/23 01:00:21;;;;;;;;;;;-8.20;99.90;;;;;;5088206;28;19945;-86
2021/12/23 01:02:47;;;;;;;;;;;-8.30;99.90;;;;;;5084207;28;19930;-85
2021/12/23 01:05:15;;;;;;;;;;;-8.50;99.90;;;;;;5077671;28;19908;-85
2021/12/23 01:07:41;;;;;;;;;;;-8.60;99.90;;;;;;5077396;28;19912;-85
2021/12/23 01:10:06;;;;;;;;;;;-8.30;99.90;;;;;;5095919;28;19919;-86
2021/12/23 01:12:40;;;;;;;;;;;-8.20;99.90;;;;;;5077266;28;19958;-86
2021/12/23 01:15:14;;;;;;;;;;;-8.10;99.90;;;;;;5076992;28;19958;-85
2021/12/23 01:17:54;;;;;;;;;;;-7.90;99.90;;;;;;5095053;28;19961;-85
2021/12/23 01:20:28;;;;;;;;;;;-7.90;99.90;;;;;;5076959;28;20006;-85
2021/12/23 01:22:54;;;;;;;;;;;-8.10;99.90;;;;;;5076427;28;19908;-85
2021/12/23 01:25:20;;;;;;;;;;;-8.20;99.90;;;;;;5094784;28;19998;-85
2021/12/23 01:27:46;;;;;;;;;;;-7.90;99.90;;;;;;5093137;28;19924;-86
2021/12/23 01:30:12;;;;;;;;;;;-8.20;99.90;;;;;;5082049;28;19911;-86
2021/12/23 01:32:38;;;;;;;;;;;-8.30;99.90;;;;;;5101355;28;19908;-86
2021/12/23 01:35:03;;;;;;;;;;;-8.30;99.90;;;;;;5077701;28;19961;-85
2021/12/23 01:37:29;;;;;;;;;;;-8.20;99.90;;;;;;5096255;28;20458;-85
2021/12/23 01:39:54;;;;;;;;;;;-8.10;99.90;;;;;;5078045;28;19916;-85
2021/12/23 01:42:20;;;;;;;;;;;-7.90;99.90;;;;;;5096877;28;19943;-85
2021/12/23 01:44:45;;;;;;;;;;;-7.80;99.90;;;;;;5096762;28;20007;-85
2021/12/23 01:47:11;;;;;;;;;;;-7.80;99.90;;;;;;5078086;28;19919;-86
2021/12/23 01:49:36;;;;;;;;;;;-7.80;99.90;;;;;;5077642;28;20012;-85
2021/12/23 01:52:02;;;;;;;;;;;-7.80;99.90;;;;;;5077193;28;19908;-86
2021/12/23 01:54:28;;;;;;;;;;;-7.70;99.90;;;;;;5077239;28;19978;-85
2021/12/23 01:56:53;;;;;;;;;;;-7.60;99.90;;;;;;5094960;28;19999;-86
2021/12/23 01:59:20;;;;;;;;;;;-7.60;99.90;;;;;;5083855;28;19958;-85
2021/12/23 02:01:46;;;;;;;;;;;-7.70;99.90;;;;;;5084809;28;19911;-85
2021/12/23 02:04:11;;;;;;;;;;;-7.80;99.90;;;;;;5093801;28;20282;-85
2021/12/23 02:06:36;;;;;;;;;;;-7.90;99.90;;;;;;5094746;28;19908;-85
2021/12/23 02:09:03;;;;;;;;;;;-7.80;99.90;;;;;;5094357;28;19919;-86
2021/12/23 02:11:28;;;;;;;;;;;-7.80;99.90;;;;;;5089542;28;20426;-86
2021/12/23 02:13:54;;;;;;;;;;;-7.80;99.90;;;;;;5055968;28;20015;-85
2021/12/23 02:16:19;;;;;;;;;;;-7.70;99.90;;;;;;5060271;28;20286;-86
2021/12/23 02:18:45;;;;;;;;;;;-7.80;99.90;;;;;;5087036;28;19914;-85
2021/12/23 02:21:10;;;;;;;;;;;-7.90;99.90;;;;;;5077467;28;20357;-86
2021/12/23 02:23:36;;;;;;;;;;;-7.80;99.90;;;;;;5076958;28;19908;-86
2021/12/23 02:26:02;;;;;;;;;;;-8.00;99.90;;;;;;5077150;28;19908;-85
2021/12/23 02:28:27;;;;;;;;;;;-8.00;99.90;;;;;;5100753;28;19998;-85
2021/12/23 02:30:53;;;;;;;;;;;-8.00;99.90;;;;;;5090374;28;20004;-86
2021/12/23 02:33:20;;;;;;;;;;;-8.00;99.90;;;;;;5076409;28;19916;-86
2021/12/23 02:35:46;;;;;;;;;;;-7.90;99.90;;;;;;5094776;28;19955;-86
2021/12/23 02:38:11;;;;;;;;;;;-7.80;99.90;;;;;;5094626;28;19912;-85
2021/12/23 02:40:38;;;;;;;;;;;-7.80;99.90;;;;;;5094175;28;19945;-86
2021/12/23 02:43:12;;;;;;;;;;;-7.80;99.90;;;;;;5075710;28;19908;-85
2021/12/23 02:45:38;;;;;;;;;;;-7.70;99.90;;;;;;5093616;28;20363;-86
2021/12/23 02:48:04;;;;;;;;;;;-7.80;99.90;;;;;;5075470;28;19912;-86
2021/12/23 02:50:29;;;;;;;;;;;-7.80;99.90;;;;;;5076113;28;19912;-86
2021/12/23 02:52:58;;;;;;;;;;;-7.70;99.90;;;;;;5094264;28;20331;-85
2021/12/23 02:55:23;;;;;;;;;;;-7.70;99.90;;;;;;5077052;28;19915;-85
2021/12/23 02:57:49;;;;;;;;;;;-7.70;99.90;;;;;;5112640;28;19908;-85
2021/12/23 03:00:14;;;;;;;;;;;-7.70;99.90;;;;;;5081118;28;19915;-85
2021/12/23 03:02:40;;;;;;;;;;;-7.60;99.90;;;;;;5078431;28;19908;-85
2021/12/23 03:05:06;;;;;;;;;;;-7.70;99.90;;;;;;5096100;28;20002;-85
2021/12/23 03:07:32;;;;;;;;;;;-7.70;99.90;;;;;;5077776;28;20014;-85
2021/12/23 03:09:57;;;;;;;;;;;-7.60;99.90;;;;;;5095587;28;20263;-86
2021/12/23 03:12:23;;;;;;;;;;;-7.60;99.90;;;;;;5095307;28;19961;-86
2021/12/23 03:14:48;;;;;;;;;;;-7.60;99.90;;;;;;5076463;28;20390;-86
2021/12/23 03:17:14;;;;;;;;;;;-7.70;99.90;;;;;;5076695;28;19951;-86
2021/12/23 03:19:39;;;;;;;;;;;-7.70;99.90;;;;;;5095791;28;20439;-85
2021/12/23 03:22:05;;;;;;;;;;;-7.60;99.90;;;;;;5077607;28;20363;-85
2021/12/23 03:24:30;;;;;;;;;;;-7.60;99.90;;;;;;5077334;28;19915;-85
2021/12/23 03:26:56;;;;;;;;;;;-7.70;99.90;;;;;;5077213;28;19961;-85
2021/12/23 03:29:21;;;;;;;;;;;-7.80;99.90;;;;;;5109569;28;19916;-85
2021/12/23 03:31:47;;;;;;;;;;;-7.80;99.90;;;;;;5096518;28;20388;-85
2021/12/23 03:34:12;;;;;;;;;;;-7.70;99.90;;;;;;5077055;28;19914;-85
2021/12/23 03:36:38;;;;;;;;;;;-7.60;99.90;;;;;;5076472;28;19908;-86
2021/12/23 03:39:04;;;;;;;;;;;-7.50;99.90;;;;;;5077111;28;19962;-86
2021/12/23 03:41:30;;;;;;;;;;;-7.50;99.90;;;;;;5094694;28;19912;-85
2021/12/23 03:43:55;;;;;;;;;;;-7.60;99.90;;;;;;5076547;28;20401;-84
2021/12/23 03:46:21;;;;;;;;;;;-7.70;99.90;;;;;;5076462;28;20009;-86
2021/12/23 03:48:46;;;;;;;;;;;-7.70;99.90;;;;;;5076332;28;19962;-86
2021/12/23 03:51:12;;;;;;;;;;;-7.50;99.90;;;;;;5096119;28;19943;-86
2021/12/23 03:53:38;;;;;;;;;;;-7.40;99.90;;;;;;5076843;28;19916;-85
2021/12/23 03:56:03;;;;;;;;;;;-7.30;99.90;;;;;;5076822;28;19916;-85
2021/12/23 03:58:29;;;;;;;;;;;-7.20;99.90;;;;;;5101652;28;20494;-85
2021/12/23 04:00:54;;;;;;;;;;;-6.90;99.90;;;;;;5085583;28;19908;-85
2021/12/23 04:03:20;;;;;;;;;;;-6.80;99.90;;;;;;5057251;28;19912;-85
2021/12/23 04:05:45;;;;;;;;;;;-6.60;99.90;;;;;;5058347;28;20256;-85
2021/12/23 04:08:11;;;;;;;;;;;-6.60;99.90;;;;;;5094995;28;19923;-85
2021/12/23 04:10:36;;;;;;;;;;;-6.50;99.90;;;;;;5077448;28;19912;-86
2021/12/23 04:13:02;;;;;;;;;;;-6.30;99.90;;;;;;5094670;28;19908;-86
2021/12/23 04:15:27;;;;;;;;;;;-6.10;99.90;;;;;;5094800;28;19908;-85
2021/12/23 04:17:53;;;;;;;;;;;-5.90;99.90;;;;;;5094807;28;19973;-86
2021/12/23 04:20:21;;;;;;;;;;;-6.00;99.90;;;;;;5095269;28;19908;-85
2021/12/23 04:22:51;;;;;;;;;;;-6.00;99.90;;;;;;5076224;28;19995;-86
2021/12/23 04:25:18;;;;;;;;;;;-5.40;99.90;;;;;;5075913;28;19908;-85
2021/12/23 04:27:46;;;;;;;;;;;-5.30;99.90;;;;;;5078318;28;19912;-86
2021/12/23 04:30:12;;;;;;;;;;;-5.60;99.90;;;;;;5097220;28;19918;-85
2021/12/23 04:32:38;;;;;;;;;;;-5.80;99.90;;;;;;5087311;28;19909;-86
2021/12/23 04:35:04;;;;;;;;;;;-6.00;99.90;;;;;;5097865;28;19957;-85
2021/12/23 04:37:29;;;;;;;;;;;-6.00;99.90;;;;;;5079730;28;19908;-85
2021/12/23 04:39:55;;;;;;;;;;;-6.00;99.90;;;;;;5079801;28;20014;-85
2021/12/23 04:42:20;;;;;;;;;;;-6.00;99.90;;;;;;5080205;28;19908;-85
2021/12/23 04:44:46;;;;;;;;;;;-5.90;99.90;;;;;;5097777;28;19908;-86
2021/12/23 04:47:11;;;;;;;;;;;-6.20;99.90;;;;;;5079748;28;19912;-85
2021/12/23 04:49:37;;;;;;;;;;;-6.00;99.90;;;;;;5079387;28;20402;-85
2021/12/23 04:52:02;;;;;;;;;;;-6.00;99.90;;;;;;5097529;28;20397;-86
2021/12/23 04:54:28;;;;;;;;;;;-6.30;99.90;;;;;;5079843;28;19912;-86
2021/12/23 04:56:53;;;;;;;;;;;-6.40;99.90;;;;;;5078090;28;19908;-86
2021/12/23 04:59:20;;;;;;;;;;;-6.60;99.90;;;;;;5092479;28;19995;-86
2021/12/23 05:01:45;;;;;;;;;;;-6.70;99.90;;;;;;5103307;28;20019;-86
2021/12/23 05:04:11;;;;;;;;;;;-6.50;99.90;;;;;;5059454;28;20566;-85
2021/12/23 05:06:37;;;;;;;;;;;-6.30;99.90;;;;;;5059556;28;20359;-86
2021/12/23 05:09:02;;;;;;;;;;;-6.40;99.90;;;;;;5069464;28;19912;-85
2021/12/23 05:11:28;;;;;;;;;;;-6.60;99.90;;;;;;5078498;28;19908;-86
2021/12/23 05:13:53;;;;;;;;;;;-6.60;99.90;;;;;;5096760;28;19908;-85
2021/12/23 05:16:19;;;;;;;;;;;-6.70;99.90;;;;;;5078631;28;19908;-85
2021/12/23 05:18:44;;;;;;;;;;;-6.90;99.90;;;;;;5096628;28;20328;-85
2021/12/23 05:21:10;;;;;;;;;;;-6.80;99.90;;;;;;5078832;28;20006;-85
2021/12/23 05:23:35;;;;;;;;;;;-6.90;99.90;;;;;;5078309;28;20424;-85
2021/12/23 05:26:01;;;;;;;;;;;-7.10;99.90;;;;;;5078554;28;20423;-85
2021/12/23 05:28:26;;;;;;;;;;;-7.20;99.90;;;;;;5085564;28;19918;-86
2021/12/23 05:30:52;;;;;;;;;;;-7.30;99.90;;;;;;5098726;28;20272;-85
2021/12/23 05:33:18;;;;;;;;;;;-7.40;99.90;;;;;;5096556;28;19908;-85
2021/12/23 05:35:43;;;;;;;;;;;-7.30;99.90;;;;;;5097037;28;19915;-85
2021/12/23 05:38:09;;;;;;;;;;;-7.50;99.90;;;;;;5096617;28;19909;-86
2021/12/23 05:40:35;;;;;;;;;;;-7.40;99.90;;;;;;5078670;28;19916;-86
2021/12/23 05:43:02;;;;;;;;;;;-7.30;99.90;;;;;;5078325;28;19914;-85
2021/12/23 05:45:28;;;;;;;;;;;-7.30;99.90;;;;;;5078650;28;19970;-86
2021/12/23 05:47:53;;;;;;;;;;;-7.40;99.90;;;;;;5078251;28;20378;-85
2021/12/23 05:50:20;;;;;;;;;;;-7.40;99.90;;;;;;5096769;28;19942;-85
2021/12/23 05:52:45;;;;;;;;;;;-7.40;99.90;;;;;;5095929;28;19908;-85
2021/12/23 05:55:11;;;;;;;;;;;-7.30;99.90;;;;;;5077346;28;19912;-85
2021/12/23 05:57:38;;;;;;;;;;;-7.40;99.90;;;;;;5096573;28;19959;-85
2021/12/23 06:00:09;;;;;;;;;;;-7.40;99.90;;;;;;5115723;28;19908;-85
2021/12/23 06:02:35;;;;;;;;;;;-7.50;99.90;;;;;;5092303;28;19963;-85
2021/12/23 06:05:00;;;;;;;;;;;-7.50;99.90;;;;;;5094916;28;19915;-85
2021/12/23 06:07:26;;;;;;;;;;;-7.50;99.90;;;;;;5077119;28;19916;-86
2021/12/23 06:09:51;;;;;;;;;;;-7.50;99.90;;;;;;5080463;28;19912;-85
2021/12/23 06:12:16;;;;;;;;;;;-7.50;99.90;;;;;;5102051;28;20102;-85
2021/12/23 06:14:42;;;;;;;;;;;-7.50;99.90;;;;;;5081382;28;20006;-86
2021/12/23 06:17:07;;;;;;;;;;;-7.50;99.90;;;;;;5082092;28;19908;-86
2021/12/23 06:19:33;;;;;;;;;;;-7.40;99.90;;;;;;5081677;28;19995;-86
2021/12/23 06:21:59;;;;;;;;;;;-7.20;99.90;;;;;;5077294;28;19915;-85
2021/12/23 06:24:24;;;;;;;;;;;-7.10;99.90;;;;;;5075658;28;19915;-86
2021/12/23 06:26:49;;;;;;;;;;;-7.20;99.90;;;;;;5087941;28;19908;-85
2021/12/23 06:29:15;;;;;;;;;;;-7.20;99.90;;;;;;5090234;28;20146;-85
2021/12/23 06:31:40;;;;;;;;;;;-7.30;99.90;;;;;;5078173;28;19915;-85
2021/12/23 06:34:06;;;;;;;;;;;-7.10;99.90;;;;;;5080531;28;19915;-85
2021/12/23 06:36:31;;;;;;;;;;;-6.90;99.90;;;;;;5080161;28;19912;-86
2021/12/23 06:38:57;;;;;;;;;;;-6.90;99.90;;;;;;5079861;28;20346;-86
2021/12/23 06:41:23;;;;;;;;;;;-6.80;99.90;;;;;;5097787;28;19962;-85
2021/12/23 06:43:48;;;;;;;;;;;-6.80;99.90;;;;;;5079030;28;20275;-86
2021/12/23 06:46:14;;;;;;;;;;;-6.70;99.90;;;;;;5079085;28;19915;-86
2021/12/23 06:48:39;;;;;;;;;;;-6.70;99.90;;;;;;5079502;28;19916;-85
2021/12/23 06:51:05;;;;;;;;;;;-6.70;99.90;;;;;;5097333;28;19908;-85
2021/12/23 06:53:31;;;;;;;;;;;-6.70;99.90;;;;;;5079224;28;19908;-85
2021/12/23 06:55:56;;;;;;;;;;;-6.60;99.90;;;;;;5097569;28;19908;-86
2021/12/23 06:58:23;;;;;;;;;;;-6.60;99.90;;;;;;5095531;28;20006;-85
2021/12/23 07:00:49;;;;;;;;;;;-6.70;99.90;;;;;;5106561;28;19908;-85
2021/12/23 07:03:14;;;;;;;;;;;-6.80;99.90;;;;;;5097338;28;20447;-86
2021/12/23 07:05:40;;;;;;;;;;;-6.80;99.90;;;;;;5097354;28;19915;-86
2021/12/23 07:08:10;;;;;;;;;;;-6.70;99.90;;;;;;5080378;28;19912;-85
2021/12/23 07:10:37;;;;;;;;;;;-6.50;99.90;;;;;;5092515;28;19908;-86
2021/12/23 07:13:03;;;;;;;;;;;-6.40;99.90;;;;;;5097471;28;20183;-85
2021/12/23 07:15:29;;;;;;;;;;;-6.30;99.90;;;;;;5078558;28;19908;-85
2021/12/23 07:17:55;;;;;;;;;;;-6.30;99.90;;;;;;5079198;28;20011;-85
2021/12/23 07:20:22;;;;;;;;;;;-6.10;99.90;;;;;;5072837;28;19961;-86
2021/12/23 07:22:47;;;;;;;;;;;-6.10;99.90;;;;;;5078479;28;20355;-86
2021/12/23 07:25:13;;;;;;;;;;;-6.00;99.90;;;;;;5096834;28;19908;-86
2021/12/23 07:27:39;;;;;;;;;;;-6.20;99.90;;;;;;5078462;28;20061;-86
2021/12/23 07:30:05;;;;;;;;;;;-6.30;99.90;;;;;;5103914;28;20436;-86
2021/12/23 07:32:31;;;;;;;;;;;-6.50;99.90;;;;;;5096397;28;20544;-85
2021/12/23 07:34:56;;;;;;;;;;;-6.50;99.90;;;;;;5095904;28;19951;-86
2021/12/23 07:37:22;;;;;;;;;;;-6.60;99.90;;;;;;5078310;28;19915;-86
2021/12/23 07:39:48;;;;;;;;;;;-6.40;99.90;;;;;;5078784;28;19916;-86
2021/12/23 07:42:15;;;;;;;;;;;-6.30;99.90;;;;;;5078237;28;19909;-85
2021/12/23 07:44:44;;;;;;;;;;;-6.30;99.90;;;;;;5076855;28;20366;-86
2021/12/23 07:47:10;;;;;;;;;;;-6.40;99.90;;;;;;5077546;28;20512;-85
2021/12/23 07:49:35;;;;;;;;;;;-6.30;99.90;;;;;;5077353;28;19954;-85
2021/12/23 07:52:01;;;;;;;;;;;-6.20;99.90;;;;;;5077721;28;19912;-85
2021/12/23 07:54:27;;;;;;;;;;;-6.00;99.90;;;;;;5095803;28;19962;-85
2021/12/23 07:56:52;;;;;;;;;;;-6.00;99.90;;;;;;5095992;28;19908;-85
2021/12/23 07:59:18;;;;;;;;;;;-6.00;99.90;;;;;;5088562;28;19908;-85
2021/12/23 08:01:43;;;;;;;;;;;-5.80;99.90;;;;;;5077308;28;19943;-86
2021/12/23 08:04:09;;;;;;;;;;;-5.90;99.90;;;;;;5080536;28;19908;-85
2021/12/23 08:06:34;;;;;;;;;;;-5.80;99.90;;;;;;5081417;28;19915;-85
2021/12/23 08:09:00;;;;;;;;;;;-5.50;99.90;;;;;;5100345;28;19923;-86
2021/12/23 08:11:25;;;;;;;;;;;-5.60;99.90;;;;;;5099949;28;20281;-86
2021/12/23 08:13:51;;;;;;;;;;;-5.60;99.90;;;;;;5098409;28;19912;-86
2021/12/23 08:16:16;;;;;;;;;;;-5.50;99.90;;;;;;5099234;28;20282;-85
2021/12/23 08:18:42;;;;;;;;;;;-5.20;99.90;;;;;;5099096;28;19912;-86
2021/12/23 08:21:07;;;;;;;;;;;-4.90;99.90;;;;;;5099303;28;20002;-86
2021/12/23 08:23:33;;;;;;;;;;;-4.70;99.90;;;;;;5080545;28;20394;-85
2021/12/23 08:26:05;;;;;;;;;;;-4.30;99.90;;;;;;5080436;28;19915;-85
2021/12/23 08:28:31;;;;;;;;;;;-4.00;99.90;;;;;;5081134;28;19912;-85
2021/12/23 08:30:57;;;;;;;;;;;-3.90;99.90;;;;;;5101403;28;19914;-85
2021/12/23 08:33:23;;;;;;;;;;;-3.60;99.90;;;;;;5085197;28;19909;-85
2021/12/23 08:35:48;;;;;;;;;;;-3.30;99.90;;;;;;5098389;28;20388;-85
2021/12/23 08:38:14;;;;;;;;;;;-3.30;99.90;;;;;;5099342;28;19908;-86
2021/12/23 08:40:39;;;;;;;;;;;-3.40;99.90;;;;;;5098931;28;19916;-85
2021/12/23 08:43:05;;;;;;;;;;;-3.50;99.90;;;;;;5098027;28;19909;-86
2021/12/23 08:45:32;;;;;;;;;;;-3.60;99.90;;;;;;5080021;28;20012;-86
2021/12/23 08:47:58;;;;;;;;;;;-3.60;99.90;;;;;;5097989;28;19989;-86
2021/12/23 08:50:24;;;;;;;;;;;-3.50;99.90;;;;;;5079999;28;19911;-85
2021/12/23 08:52:51;;;;;;;;;;;-3.40;99.90;;;;;;5097741;28;19908;-86
2021/12/23 08:55:17;;;;;;;;;;;-3.40;99.90;;;;;;5079219;28;19947;-85
2021/12/23 08:57:42;;;;;;;;;;;-3.30;99.90;;;;;;5079517;28;19915;-86
2021/12/23 09:00:10;;;;;;;;;;;-3.10;99.90;;;;;;5086980;28;19936;-86
2021/12/23 09:02:36;;;;;;;;;;;-2.60;99.90;;;;;;5079918;28;19912;-85
2021/12/23 09:05:01;;;;;;;;;;;-2.50;99.90;;;;;;5077932;28;20297;-88
2021/12/23 09:07:27;;;;;;;;;;;-2.30;99.90;;;;;;5090324;28;20375;-87
2021/12/23 09:09:52;;;;;;;;;;;-1.80;99.90;;;;;;5075238;28;19963;-87
2021/12/23 09:12:19;;;;;;;;;;;-1.20;99.90;;;;;;5075864;28;20257;-88
2021/12/23 09:14:45;;;;;;;;;;;-1.20;99.90;;;;;;5056942;28;19909;-88
2021/12/23 09:17:10;;;;;;;;;;;-1.10;99.90;;;;;;5058714;28;19909;-88
2021/12/23 09:19:36;;;;;;;;;;;-1.00;99.90;;;;;;5057457;28;19915;-88
2021/12/23 09:22:02;;;;;;;;;;;-1.00;99.90;;;;;;5093929;28;19912;-88
2021/12/23 09:24:27;;;;;;;;;;;-1.00;99.90;;;;;;5076903;28;19969;-88
2021/12/23 09:27:00;;;;;;;;;;;-1.00;99.90;;;;;;5094860;28;19968;-88
2021/12/23 09:34:45;;;;;;;;;;;-1.10;99.90;;;;;;5080442;28;19915;-88
2021/12/23 09:37:10;;;;;;;;;;;-0.90;99.90;;;;;;5093583;28;19912;-89
2021/12/23 09:39:36;;;;;;;;;;;-0.50;99.90;;;;;;5077453;28;19916;-88
2021/12/23 09:42:03;;;;;;;;;;;-0.20;99.90;;;;;;5091303;28;19912;-88
2021/12/23 09:44:29;;;;;;;;;;;0.10;99.90;;;;;;5073012;28;19998;-88
2021/12/23 09:46:57;;;;;;;;;;;0.20;99.90;;;;;;5079631;28;19915;-87
2021/12/23 09:49:23;;;;;;;;;;;0.30;99.90;;;;;;5056533;28;20255;-88
2021/12/23 09:51:49;;;;;;;;;;;0.40;99.90;;;;;;5056353;28;19916;-88
2021/12/23 09:54:16;;;;;;;;;;;0.40;99.90;;;;;;5056566;28;19908;-87
2021/12/23 09:56:42;;;;;;;;;;;0.60;99.90;;;;;;5075675;28;19912;-88
2021/12/23 09:59:09;;;;;;;;;;;0.70;99.90;;;;;;5076392;28;19908;-87
2021/12/23 10:01:35;;;;;;;;;;;0.80;99.90;;;;;;5076097;28;19908;-88
2021/12/23 10:04:00;;;;;;;;;;;1.10;99.90;;;;;;5094006;28;19908;-87
2021/12/23 10:06:26;;;;;;;;;;;1.30;99.90;;;;;;5092802;28;19915;-89
2021/12/23 10:08:53;;;;;;;;;;;1.40;99.90;;;;;;5076082;28;19989;-87
2021/12/23 10:38:16;;;;;;;;;;;2.40;99.90;;;;;;5044154;28;20359;-87
2021/12/23 10:40:43;;;;;;;;;;;2.60;99.90;;;;;;5075275;28;19918;-87
2021/12/23 10:43:11;;;;;;;;;;;2.60;99.90;;;;;;5093108;28;20440;-87
2021/12/23 10:45:49;;;;;;;;;;;2.70;99.90;;;;;;5093442;28;20003;-86
2021/12/23 10:48:16;;;;;;;;;;;2.70;99.90;;;;;;5074917;28;19912;-86
2021/12/23 10:50:49;;;;;;;;;;;2.80;99.90;;;;;;5075385;28;20540;-87
2021/12/23 10:53:39;;;;;;;;;;;2.80;99.90;;;;;;5093372;28;19912;-87
2021/12/23 10:59:03;;;;;;;;;;;3.00;99.90;;;;;;5094049;28;19961;-87
2021/12/23 11:01:29;;;;;;;;;;;3.20;99.90;;;;;;5070906;28;19908;-87
2021/12/23 11:03:59;;;;;;;;;;;3.20;99.90;;;;;;5085585;28;20452;-89
2021/12/23 11:06:31;;;;;;;;;;;3.20;99.90;;;;;;5074440;28;20544;-88
2021/12/23 11:35:46;;;;;;;;;;;3.90;99.90;;;;;;5092349;28;19970;-88
2021/12/23 11:43:52;;;;;;;;;;;4.30;99.90;;;;;;5096738;28;20255;-87
2021/12/23 11:46:24;;;;;;;;;;;4.30;99.90;;;;;;5078551;28;20317;-89
2021/12/23 11:48:53;;;;;;;;;;;4.30;99.90;;;;;;5078447;28;20285;-88
2021/12/23 11:51:31;;;;;;;;;;;4.30;99.90;;;;;;5078557;28;19908;-90
2021/12/23 11:53:57;;;;;;;;;;;4.50;99.90;;;;;;5078157;28;19912;-89
2021/12/23 11:56:24;;;;;;;;;;;4.80;99.90;;;;;;5078245;28;20267;-90
2021/12/23 11:58:50;;;;;;;;;;;4.90;99.90;;;;;;5060786;28;19908;-88
2021/12/23 12:01:18;;;;;;;;;;;4.90;99.90;;;;;;5078257;28;19931;-88
2021/12/23 12:03:55;;;;;;;;;;;5.00;99.90;;;;;;5096338;28;19967;-89
2021/12/23 12:06:25;;;;;;;;;;;5.10;99.90;;;;;;5078417;28;20079;-89
2021/12/23 12:08:52;;;;;;;;;;;5.20;99.90;;;;;;5078262;28;19912;-90
2021/12/23 12:11:19;;;;;;;;;;;5.30;99.90;;;;;;5078196;28;19912;-90
2021/12/23 12:13:44;;;;;;;;;;;5.40;99.90;;;;;;5096629;28;19915;-89
2021/12/23 12:16:28;;;;;;;;;;;5.40;99.90;;;;;;5078179;28;19909;-90
2021/12/23 12:18:54;;;;;;;;;;;5.50;99.90;;;;;;5078034;28;19912;-89
2021/12/23 12:21:22;;;;;;;;;;;5.40;99.90;;;;;;5078025;28;19935;-89
2021/12/23 12:23:47;;;;;;;;;;;5.40;99.90;;;;;;5095986;28;19947;-91
2021/12/23 12:26:23;;;;;;;;;;;5.30;99.90;;;;;;5091314;28;19915;-89
2021/12/23 12:28:49;;;;;;;;;;;5.20;99.90;;;;;;5091982;28;19956;-89
2021/12/23 12:31:19;;;;;;;;;;;5.20;99.90;;;;;;5057758;28;20390;-90
2021/12/23 12:33:49;;;;;;;;;;;5.10;99.90;;;;;;5057923;28;19912;-90
2021/12/23 12:36:15;;;;;;;;;;;5.30;99.90;;;;;;5075694;28;20537;-89
2021/12/23 12:38:43;;;;;;;;;;;5.30;99.90;;;;;;5057583;28;19946;-89
2021/12/23 12:41:08;;;;;;;;;;;5.40;99.90;;;;;;5057793;28;20341;-90
2021/12/23 12:43:41;;;;;;;;;;;5.50;99.90;;;;;;5075638;28;19908;-90
2021/12/23 12:46:07;;;;;;;;;;;5.50;99.90;;;;;;5057929;28;19908;-89
2021/12/23 12:48:52;;;;;;;;;;;5.40;99.90;;;;;;5056801;28;19912;-88
2021/12/23 12:51:19;;;;;;;;;;;5.40;99.90;;;;;;5060170;28;19908;-91
2021/12/23 12:53:52;;;;;;;;;;;5.40;99.90;;;;;;5058051;28;19943;-90
2021/12/23 12:56:25;;;;;;;;;;;5.30;99.90;;;;;;5071633;28;19915;-89
2021/12/23 12:58:52;;;;;;;;;;;5.30;99.90;;;;;;5077632;28;19991;-90
2021/12/23 13:01:29;;;;;;;;;;;5.40;99.90;;;;;;5077108;28;19912;-89
2021/12/23 13:03:54;;;;;;;;;;;5.30;99.90;;;;;;5077599;28;19908;-89
2021/12/23 13:06:20;;;;;;;;;;;5.20;99.90;;;;;;5077528;28;19916;-89
2021/12/23 13:08:45;;;;;;;;;;;5.10;99.90;;;;;;5077562;28;19996;-91
2021/12/23 13:11:13;;;;;;;;;;;5.10;99.90;;;;;;5077141;28;19908;-89
2021/12/23 13:13:43;;;;;;;;;;;5.00;99.90;;;;;;5076935;28;19914;-90
2021/12/23 13:16:20;;;;;;;;;;;5.20;99.90;;;;;;5095193;28;20004;-91
2021/12/23 13:18:46;;;;;;;;;;;5.30;99.90;;;;;;5077586;28;19915;-88
2021/12/23 13:21:17;;;;;;;;;;;5.30;99.90;;;;;;5095118;28;19919;-88
2021/12/23 13:23:45;;;;;;;;;;;5.20;99.90;;;;;;5077263;28;19912;-90
2021/12/23 13:26:12;;;;;;;;;;;5.30;99.90;;;;;;5099814;28;19942;-89
2021/12/23 13:28:40;;;;;;;;;;;5.30;99.90;;;;;;5097415;28;19956;-89
2021/12/23 13:31:16;;;;;;;;;;;5.40;99.90;;;;;;5096984;28;19953;-89
2021/12/23 13:33:45;;;;;;;;;;;5.20;99.90;;;;;;5115664;28;19911;-89
2021/12/23 13:36:18;;;;;;;;;;;5.30;99.90;;;;;;5089297;28;19919;-87
2021/12/23 13:38:44;;;;;;;;;;;5.20;99.90;;;;;;5094930;28;19908;-90
2021/12/23 13:41:24;;;;;;;;;;;5.20;99.90;;;;;;5076921;28;19912;-90
2021/12/23 13:43:50;;;;;;;;;;;5.20;99.90;;;;;;5076832;28;19915;-89
2021/12/23 13:46:15;;;;;;;;;;;5.20;99.90;;;;;;5076150;28;19908;-88
2021/12/23 13:48:48;;;;;;;;;;;5.20;99.90;;;;;;5076597;28;19912;-89
2021/12/23 13:51:14;;;;;;;;;;;5.20;99.90;;;;;;5076457;28;19908;-88
2021/12/23 13:53:40;;;;;;;;;;;5.10;99.90;;;;;;5076264;28;19916;-89
2021/12/23 13:56:12;;;;;;;;;;;5.20;99.90;;;;;;5080617;28;20393;-88
2021/12/23 13:58:38;;;;;;;;;;;5.20;99.90;;;;;;5079444;28;19915;-88
2021/12/23 14:01:03;;;;;;;;;;;5.10;99.90;;;;;;5076296;28;19908;-87
2021/12/23 14:03:29;;;;;;;;;;;5.00;99.90;;;;;;5076116;28;20477;-89
2021/12/23 14:05:54;;;;;;;;;;;5.00;99.90;;;;;;5094266;28;19965;-88
2021/12/23 14:08:20;;;;;;;;;;;5.00;99.90;;;;;;5076054;28;19916;-89
2021/12/23 14:10:46;;;;;;;;;;;4.90;99.90;;;;;;5076212;28;19909;-87
2021/12/23 14:13:15;;;;;;;;;;;5.00;99.90;;;;;;5094499;28;20019;-90
2021/12/23 14:15:44;;;;;;;;;;;4.90;99.90;;;;;;5076212;28;20389;-89
2021/12/23 14:18:25;;;;;;;;;;;4.90;99.90;;;;;;5094066;28;19915;-89
2021/12/23 14:23:24;;;;;;;;;;;4.80;99.90;;;;;;5093547;28;19939;-89
2021/12/23 14:25:50;;;;;;;;;;;4.70;99.90;;;;;;5084048;28;19908;-88
2021/12/23 14:28:26;;;;;;;;;;;4.70;99.90;;;;;;5100324;28;19911;-88
2021/12/23 14:30:54;;;;;;;;;;;4.70;99.90;;;;;;5092644;28;20299;-89
2021/12/23 14:33:24;;;;;;;;;;;4.80;99.90;;;;;;5075845;28;19921;-89
2021/12/23 14:35:51;;;;;;;;;;;4.70;99.90;;;;;;5094401;28;19978;-90
2021/12/23 14:38:34;;;;;;;;;;;4.80;99.90;;;;;;5101645;28;20337;-88
2021/12/23 14:41:04;;;;;;;;;;;4.80;99.90;;;;;;5093964;28;19916;-88
2021/12/23 14:43:53;;;;;;;;;;;4.70;99.90;;;;;;5093803;28;19908;-88
2021/12/23 14:46:40;;;;;;;;;;;4.70;99.90;;;;;;5076073;28;19915;-89
2021/12/23 14:51:39;;;;;;;;;;;4.80;99.90;;;;;;5094943;28;19919;-88
2021/12/23 14:54:08;;;;;;;;;;;4.70;99.90;;;;;;5076162;28;19908;-88
2021/12/23 14:56:34;;;;;;;;;;;4.50;99.90;;;;;;5094465;28;19998;-88
2021/12/23 14:59:11;;;;;;;;;;;4.50;99.90;;;;;;5056574;28;19909;-88
2021/12/23 15:01:38;;;;;;;;;;;4.40;99.90;;;;;;5086610;28;20012;-87
2021/12/23 15:04:08;;;;;;;;;;;4.40;99.90;;;;;;5092336;28;19908;-88
2021/12/23 15:06:54;;;;;;;;;;;4.20;99.90;;;;;;5093273;28;19908;-88
2021/12/23 15:09:20;;;;;;;;;;;4.40;99.90;;;;;;5092971;28;19942;-88
2021/12/23 15:11:46;;;;;;;;;;;4.50;99.90;;;;;;5075140;28;19970;-88
2021/12/23 15:14:16;;;;;;;;;;;4.60;99.90;;;;;;5075192;28;19912;-89
2021/12/23 15:16:42;;;;;;;;;;;4.50;99.90;;;;;;5075157;28;19954;-88
2021/12/23 15:19:24;;;;;;;;;;;4.40;99.90;;;;;;5074975;28;19908;-89
2021/12/23 15:21:52;;;;;;;;;;;4.20;99.90;;;;;;5075590;28;20285;-88
2021/12/23 15:24:18;;;;;;;;;;;4.10;99.90;;;;;;5093954;28;19915;-89
2021/12/23 15:26:49;;;;;;;;;;;4.20;99.90;;;;;;5076722;28;19908;-89
2021/12/23 15:29:16;;;;;;;;;;;4.00;99.90;;;;;;5077084;28;19912;-87
2021/12/23 15:31:44;;;;;;;;;;;3.90;99.90;;;;;;5077388;28;19909;-88
2021/12/23 15:34:10;;;;;;;;;;;3.90;99.90;;;;;;5075619;28;19915;-86
2021/12/23 15:36:37;;;;;;;;;;;3.60;99.90;;;;;;5074018;28;20448;-86